createdAt,value
2018-09-09T00:01:28.843Z,69.50
2018-09-09T00:04:00.714Z,69.40
2018-09-09T00:06:32.441Z,69.40
2018-09-09T00:09:04.443Z,69.60
2018-09-09T00:11:36.397Z,69.60
2018-09-09T00:14:08.225Z,69.80
2018-09-09T00:16:40.019Z,70.30
2018-09-09T00:19:11.754Z,69.20
2018-09-09T00:21:43.645Z,69.60
2018-09-09T00:24:15.373Z,69.40
2018-09-09T00:26:47.062Z,69.50
2018-09-09T00:29:18.880Z,69.40
2018-09-09T00:31:50.672Z,69.00
2018-09-09T00:34:22.750Z,69.00
2018-09-09T00:36:54.610Z,69.40
2018-09-09T00:39:26.333Z,69.20
2018-09-09T00:41:58.082Z,68.70
2018-09-09T00:44:29.879Z,68.30
2018-09-09T00:47:01.737Z,68.20
2018-09-09T00:49:38.317Z,68.00
2018-09-09T00:52:15.882Z,68.30
2018-09-09T00:54:47.657Z,68.20
2018-09-09T00:57:19.362Z,68.20
2018-09-09T00:59:51.283Z,68.00
2018-09-09T01:02:23.033Z,68.00
2018-09-09T01:04:54.879Z,68.00
2018-09-09T01:07:26.742Z,68.20
2018-09-09T01:09:58.594Z,68.60
2018-09-09T01:12:30.264Z,68.50
2018-09-09T01:15:02.028Z,69.20
2018-09-09T01:17:33.869Z,69.20
2018-09-09T01:20:05.737Z,69.30
2018-09-09T01:22:37.398Z,69.80
2018-09-09T01:25:09.255Z,69.50
2018-09-09T01:27:41.046Z,69.40
2018-09-09T01:30:13.013Z,69.00
2018-09-09T01:32:44.753Z,69.00
2018-09-09T01:35:16.589Z,69.00
2018-09-09T01:37:48.250Z,68.70
2018-09-09T01:40:20.046Z,69.20
2018-09-09T01:42:51.761Z,69.80
2018-09-09T01:45:23.427Z,70.20
2018-09-09T01:47:55.098Z,70.00
2018-09-09T01:50:26.837Z,69.70
2018-09-09T01:52:58.522Z,69.30
2018-09-09T01:55:30.378Z,69.00
2018-09-09T01:58:02.116Z,69.20
2018-09-09T02:00:33.799Z,69.40
2018-09-09T02:03:05.563Z,69.40
2018-09-09T02:05:37.393Z,70.00
2018-09-09T02:08:09.288Z,70.00
2018-09-09T02:10:41.037Z,70.00
2018-09-09T02:13:12.777Z,70.60
2018-09-09T02:15:55.406Z,71.00
2018-09-09T02:18:27.168Z,71.20
2018-09-09T02:20:59.019Z,71.20
2018-09-09T02:23:30.776Z,71.00
2018-09-09T02:26:02.437Z,70.60
2018-09-09T02:28:34.184Z,70.10
2018-09-09T02:31:05.937Z,70.30
2018-09-09T02:33:37.801Z,69.80
2018-09-09T02:36:09.656Z,69.70
2018-09-09T02:38:41.426Z,69.70
2018-09-09T02:41:13.272Z,69.80
2018-09-09T02:43:45.117Z,70.00
2018-09-09T02:46:16.934Z,70.40
2018-09-09T02:48:48.795Z,69.90
2018-09-09T02:51:20.429Z,69.60
2018-09-09T02:53:52.173Z,69.40
2018-09-09T02:56:23.834Z,70.10
2018-09-09T02:58:55.607Z,70.70
2018-09-09T03:01:27.364Z,71.70
2018-09-09T03:03:59.016Z,71.50
2018-09-09T03:06:30.769Z,72.00
2018-09-09T03:09:02.866Z,71.90
2018-09-09T03:11:34.519Z,71.50
2018-09-09T03:14:06.194Z,71.00
2018-09-09T03:16:38.118Z,71.30
2018-09-09T03:19:09.721Z,70.90
2018-09-09T03:21:41.445Z,70.80
2018-09-09T03:24:13.216Z,71.10
2018-09-09T03:26:44.970Z,71.30
2018-09-09T03:29:16.681Z,71.70
2018-09-09T03:31:48.492Z,71.90
2018-09-09T03:34:20.122Z,72.20
2018-09-09T03:36:51.902Z,72.00
2018-09-09T03:39:23.777Z,72.00
2018-09-09T03:41:55.408Z,72.10
2018-09-09T03:44:27.154Z,72.10
2018-09-09T03:46:58.948Z,72.00
2018-09-09T03:49:30.663Z,71.70
2018-09-09T03:52:02.521Z,71.50
2018-09-09T03:54:34.307Z,71.50
2018-09-09T03:57:06.182Z,72.40
2018-09-09T03:59:38.929Z,71.70
2018-09-09T04:02:10.589Z,72.20
2018-09-09T04:04:42.264Z,72.50
2018-09-09T04:07:14.020Z,72.30
2018-09-09T04:09:45.758Z,72.20
2018-09-09T04:12:17.450Z,72.50
2018-09-09T04:14:49.195Z,72.30
2018-09-09T04:17:20.861Z,72.20
2018-09-09T04:19:52.630Z,72.30
2018-09-09T04:22:24.249Z,72.80
2018-09-09T04:24:56.050Z,73.20
2018-09-09T04:27:27.766Z,73.20
2018-09-09T04:29:59.440Z,73.40
2018-09-09T04:32:31.177Z,73.20
2018-09-09T04:35:02.869Z,73.20
2018-09-09T04:37:34.610Z,73.60
2018-09-09T04:40:06.490Z,73.50
2018-09-09T04:42:38.317Z,73.10
2018-09-09T04:45:10.119Z,73.40
2018-09-09T04:47:41.964Z,72.90
2018-09-09T04:50:13.799Z,72.80
2018-09-09T04:52:45.672Z,72.70
2018-09-09T04:55:17.454Z,72.70
2018-09-09T04:57:49.098Z,72.60
2018-09-09T05:00:20.875Z,73.10
2018-09-09T05:02:52.635Z,72.90
2018-09-09T05:05:24.425Z,73.70
2018-09-09T05:07:56.217Z,74.60
2018-09-09T05:10:28.111Z,74.10
2018-09-09T05:12:59.759Z,73.90
2018-09-09T05:15:31.500Z,73.90
2018-09-09T05:18:03.292Z,73.80
2018-09-09T05:20:34.934Z,73.30
2018-09-09T05:23:06.786Z,73.60
2018-09-09T05:25:38.428Z,73.70
2018-09-09T05:28:10.110Z,73.50
2018-09-09T05:30:41.955Z,73.30
2018-09-09T05:33:13.739Z,73.20
2018-09-09T05:35:45.389Z,73.10
2018-09-09T05:38:17.257Z,73.30
2018-09-09T05:40:48.881Z,73.40
2018-09-09T05:43:20.653Z,73.50
2018-09-09T05:45:52.506Z,73.60
2018-09-09T05:48:24.292Z,73.30
2018-09-09T05:50:55.929Z,73.20
2018-09-09T05:53:27.821Z,73.00
2018-09-09T05:55:59.672Z,72.80
2018-09-09T05:58:31.431Z,72.90
2018-09-09T06:01:03.273Z,72.90
2018-09-09T06:03:35.017Z,72.80
2018-09-09T06:06:06.693Z,72.60
2018-09-09T06:08:38.434Z,72.50
2018-09-09T06:11:10.329Z,72.20
2018-09-09T06:13:41.965Z,72.10
2018-09-09T06:16:13.638Z,71.90
2018-09-09T06:18:45.493Z,71.60
2018-09-09T06:21:17.305Z,71.30
2018-09-09T06:23:49.006Z,70.80
2018-09-09T06:26:20.756Z,70.50
2018-09-09T06:28:52.535Z,70.40
2018-09-09T06:31:24.179Z,70.30
2018-09-09T06:33:56.079Z,70.40
2018-09-09T06:36:27.913Z,70.40
2018-09-09T06:38:59.767Z,70.30
2018-09-09T06:41:31.503Z,70.10
2018-09-09T06:44:03.186Z,70.00
2018-09-09T06:46:34.970Z,69.30
2018-09-09T06:49:07.290Z,69.20
2018-09-09T06:51:39.158Z,68.90
2018-09-09T06:54:10.908Z,68.70
2018-09-09T06:56:42.705Z,68.90
2018-09-09T06:59:14.342Z,68.40
2018-09-09T07:01:46.223Z,68.10
2018-09-09T07:04:17.854Z,67.50
2018-09-09T07:06:49.627Z,67.90
2018-09-09T07:09:21.566Z,67.20
2018-09-09T07:11:53.398Z,66.80
2018-09-09T07:14:25.120Z,66.80
2018-09-09T07:16:56.919Z,66.90
2018-09-09T07:19:28.738Z,66.90
2018-09-09T07:22:00.374Z,66.20
2018-09-09T07:24:32.126Z,66.50
2018-09-09T07:27:03.883Z,65.70
2018-09-09T07:29:35.672Z,65.50
2018-09-09T07:32:07.466Z,65.10
2018-09-09T07:34:39.287Z,64.80
2018-09-09T07:37:11.235Z,64.40
2018-09-09T07:39:42.889Z,64.30
2018-09-09T07:42:14.637Z,64.20
2018-09-09T07:44:46.514Z,64.70
2018-09-09T07:47:18.170Z,64.70
2018-09-09T07:49:49.917Z,64.30
2018-09-09T07:52:21.681Z,64.40
2018-09-09T07:54:53.353Z,64.10
2018-09-09T07:57:25.098Z,63.50
2018-09-09T07:59:56.741Z,63.60
2018-09-09T08:02:28.459Z,63.50
2018-09-09T08:05:00.275Z,63.60
2018-09-09T08:07:31.945Z,62.70
2018-09-09T08:10:03.710Z,62.60
2018-09-09T08:12:35.469Z,62.10
2018-09-09T08:15:07.401Z,62.20
2018-09-09T08:17:39.081Z,62.10
2018-09-09T08:20:11.030Z,61.80
2018-09-09T08:22:42.991Z,61.50
2018-09-09T08:25:14.654Z,61.20
2018-09-09T08:27:46.450Z,60.70
2018-09-09T08:30:18.370Z,59.80
2018-09-09T08:32:50.033Z,59.20
2018-09-09T08:35:21.702Z,58.90
2018-09-09T08:37:53.454Z,58.90
2018-09-09T08:40:25.231Z,58.70
2018-09-09T08:42:57.083Z,57.50
2018-09-09T08:45:28.875Z,57.80
2018-09-09T08:48:00.686Z,57.40
2018-09-09T08:50:32.775Z,57.40
2018-09-09T08:53:04.507Z,57.00
2018-09-09T08:55:36.164Z,56.90
2018-09-09T08:58:07.740Z,56.80
2018-09-09T09:00:39.507Z,56.50
2018-09-09T09:03:11.195Z,56.00
2018-09-09T09:05:43.025Z,55.40
2018-09-09T09:08:14.782Z,55.10
2018-09-09T09:10:46.518Z,54.60
2018-09-09T09:13:18.275Z,52.20
2018-09-09T09:15:50.026Z,52.30
2018-09-09T09:18:21.700Z,53.60
2018-09-09T09:20:53.438Z,52.20
2018-09-09T09:23:25.429Z,50.90
2018-09-09T09:25:57.201Z,48.10
2018-09-09T09:28:28.944Z,46.20
2018-09-09T09:31:00.921Z,44.60
2018-09-09T09:33:32.790Z,45.90
2018-09-09T09:36:04.539Z,45.60
2018-09-09T09:38:36.261Z,46.40
2018-09-09T09:41:07.934Z,46.80
2018-09-09T09:43:39.555Z,46.30
2018-09-09T09:46:11.258Z,46.10
2018-09-09T09:48:42.982Z,45.70
2018-09-09T09:51:14.832Z,45.30
2018-09-09T09:53:46.546Z,44.70
2018-09-09T09:56:18.278Z,45.00
2018-09-09T09:58:50.058Z,44.90
2018-09-09T10:01:22.769Z,44.10
2018-09-09T10:03:54.565Z,42.70
2018-09-09T10:06:26.382Z,43.60
2018-09-09T10:09:01.173Z,44.00
2018-09-09T10:11:33.962Z,41.80
2018-09-09T10:14:05.950Z,41.80
2018-09-09T10:16:37.703Z,42.40
2018-09-09T10:19:09.358Z,42.60
2018-09-09T10:21:41.080Z,43.20
2018-09-09T10:24:16.972Z,42.60
2018-09-09T10:26:48.732Z,41.70
2018-09-09T10:29:20.506Z,42.50
2018-09-09T10:31:52.332Z,42.80
2018-09-09T10:34:24.000Z,42.90
2018-09-09T10:36:55.844Z,42.60
2018-09-09T10:39:27.497Z,42.90
2018-09-09T10:41:59.373Z,42.60
2018-09-09T10:44:31.010Z,42.90
2018-09-09T10:47:02.947Z,41.30
2018-09-09T10:49:34.665Z,41.50
2018-09-09T10:52:06.313Z,41.20
2018-09-09T10:54:38.080Z,41.10
2018-09-09T10:57:09.807Z,41.50
2018-09-09T10:59:41.693Z,41.00
2018-09-09T11:02:13.427Z,41.10
2018-09-09T11:04:45.218Z,38.80
2018-09-09T11:07:16.966Z,38.60
2018-09-09T11:09:48.837Z,39.80
2018-09-09T11:12:24.583Z,39.90
2018-09-09T11:14:56.445Z,40.20
2018-09-09T11:17:28.375Z,40.30
2018-09-09T11:20:00.237Z,39.60
2018-09-09T11:22:32.105Z,39.20
2018-09-09T11:25:03.774Z,38.70
2018-09-09T11:27:35.518Z,38.70
2018-09-09T11:30:07.487Z,39.20
2018-09-09T11:32:39.173Z,40.00
2018-09-09T11:35:10.905Z,39.50
2018-09-09T11:37:42.576Z,39.50
2018-09-09T11:40:14.332Z,39.40
2018-09-09T11:42:46.074Z,38.50
2018-09-09T11:45:17.762Z,37.80
2018-09-09T11:47:49.547Z,38.10
2018-09-09T11:50:21.570Z,37.60
2018-09-09T11:52:53.430Z,37.90
2018-09-09T11:55:25.209Z,37.40
2018-09-09T11:57:57.267Z,37.80
2018-09-09T12:00:29.124Z,39.00
2018-09-09T12:03:01.100Z,37.10
2018-09-09T12:05:32.751Z,37.10
2018-09-09T12:08:04.912Z,37.80
2018-09-09T12:10:36.789Z,37.50
2018-09-09T12:13:08.413Z,36.50
2018-09-09T12:15:40.161Z,37.60
2018-09-09T12:18:11.939Z,37.60
2018-09-09T12:20:43.720Z,38.00
2018-09-09T12:23:15.554Z,38.30
2018-09-09T12:25:47.509Z,38.40
2018-09-09T12:28:19.177Z,37.60
2018-09-09T12:30:51.146Z,37.30
2018-09-09T12:33:23.158Z,35.90
2018-09-09T12:35:55.059Z,36.10
2018-09-09T12:38:26.815Z,37.10
2018-09-09T12:40:58.500Z,37.20
2018-09-09T12:43:35.245Z,36.20
2018-09-09T12:46:12.162Z,34.70
2018-09-09T12:48:48.841Z,33.80
2018-09-09T12:51:20.597Z,34.40
2018-09-09T12:53:52.332Z,32.50
2018-09-09T12:56:24.200Z,33.10
2018-09-09T12:58:56.349Z,33.00
2018-09-09T13:01:28.521Z,33.50
2018-09-09T13:04:00.258Z,32.00
2018-09-09T13:06:31.959Z,32.10
2018-09-09T13:09:03.957Z,33.00
2018-09-09T13:11:35.769Z,33.50
2018-09-09T13:14:07.676Z,33.60
2018-09-09T13:16:39.485Z,32.90
2018-09-09T13:19:11.479Z,32.50
2018-09-09T13:21:43.119Z,32.40
2018-09-09T13:24:14.781Z,32.20
2018-09-09T13:26:46.518Z,32.30
2018-09-09T13:29:18.311Z,32.80
2018-09-09T13:31:50.049Z,32.10
2018-09-09T13:34:21.930Z,33.00
2018-09-09T13:36:53.561Z,32.90
2018-09-09T13:39:25.454Z,33.20
2018-09-09T13:41:57.377Z,32.80
2018-09-09T13:44:29.276Z,31.40
2018-09-09T13:47:01.037Z,31.80
2018-09-09T13:49:32.820Z,31.60
2018-09-09T13:52:04.823Z,31.40
2018-09-09T13:54:36.616Z,31.70
2018-09-09T13:57:08.474Z,31.90
2018-09-09T13:59:40.117Z,31.50
2018-09-09T14:02:11.895Z,31.50
2018-09-09T14:04:43.655Z,32.50
2018-09-09T14:07:15.453Z,32.60
2018-09-09T14:09:47.273Z,32.40
2018-09-09T14:12:19.182Z,32.10
2018-09-09T14:14:50.881Z,31.70
2018-09-09T14:17:22.632Z,31.40
2018-09-09T14:19:54.277Z,30.70
2018-09-09T14:22:26.019Z,31.30
2018-09-09T14:24:57.798Z,31.80
2018-09-09T14:27:29.464Z,31.80
2018-09-09T14:30:01.113Z,31.50
2018-09-09T14:32:32.889Z,30.20
2018-09-09T14:35:04.745Z,30.00
2018-09-09T14:37:36.492Z,30.00
2018-09-09T14:40:08.280Z,30.00
2018-09-09T14:42:40.006Z,29.40
2018-09-09T14:45:11.781Z,30.00
2018-09-09T14:47:43.439Z,29.60
2018-09-09T14:50:15.277Z,30.20
2018-09-09T14:52:47.136Z,30.10
2018-09-09T14:55:18.817Z,30.90
2018-09-09T14:57:50.694Z,30.90
2018-09-09T15:00:22.805Z,31.20
2018-09-09T15:02:54.532Z,30.10
2018-09-09T15:05:26.480Z,30.10
2018-09-09T15:07:58.214Z,30.00
2018-09-09T15:10:29.969Z,30.70
2018-09-09T15:13:01.864Z,31.00
2018-09-09T15:15:33.605Z,31.20
2018-09-09T15:18:05.490Z,31.00
2018-09-09T15:20:37.216Z,30.70
2018-09-09T15:23:09.085Z,30.60
2018-09-09T15:25:40.818Z,30.70
2018-09-09T15:28:12.493Z,31.20
2018-09-09T15:30:44.260Z,31.00
2018-09-09T15:33:16.011Z,30.80
2018-09-09T15:35:47.893Z,30.90
2018-09-09T15:38:19.533Z,31.60
2018-09-09T15:40:51.307Z,32.60
2018-09-09T15:43:23.078Z,33.10
2018-09-09T15:45:54.792Z,32.60
2018-09-09T15:48:26.464Z,33.50
2018-09-09T15:50:58.125Z,33.90
2018-09-09T15:53:29.888Z,33.70
2018-09-09T15:56:01.756Z,33.70
2018-09-09T15:58:33.501Z,34.10
2018-09-09T16:01:05.361Z,34.20
2018-09-09T16:03:37.242Z,34.20
2018-09-09T16:06:08.984Z,34.60
2018-09-09T16:08:40.749Z,34.20
2018-09-09T16:11:12.490Z,34.60
2018-09-09T16:13:44.290Z,34.80
2018-09-09T16:16:16.129Z,34.80
2018-09-09T16:18:48.061Z,34.90
2018-09-09T16:21:19.837Z,35.00
2018-09-09T16:23:51.502Z,35.00
2018-09-09T16:26:23.263Z,35.50
2018-09-09T16:28:54.932Z,36.00
2018-09-09T16:31:26.762Z,36.40
2018-09-09T16:33:58.558Z,36.40
2018-09-09T16:36:30.202Z,37.20
2018-09-09T16:39:01.939Z,37.40
2018-09-09T16:41:33.615Z,37.50
2018-09-09T16:44:05.460Z,38.10
2018-09-09T16:46:37.277Z,38.60
2018-09-09T16:49:24.930Z,38.80
2018-09-09T16:52:12.272Z,39.20
2018-09-09T16:54:47.149Z,39.70
2018-09-09T16:57:21.279Z,39.80
2018-09-09T17:00:08.690Z,40.30
2018-09-09T17:02:43.488Z,41.00
2018-09-09T17:05:18.851Z,41.40
2018-09-09T17:08:03.970Z,41.70
2018-09-09T17:10:54.624Z,42.10
2018-09-09T17:13:28.637Z,42.30
2018-09-09T17:16:03.452Z,42.60
2018-09-09T17:18:53.873Z,42.80
2018-09-09T17:21:53.781Z,43.30
2018-09-09T17:24:41.806Z,42.90
2018-09-09T17:27:17.521Z,43.10
2018-09-09T17:30:07.510Z,43.40
2018-09-09T17:33:04.703Z,43.90
2018-09-09T17:36:01.219Z,44.30
2018-09-09T17:38:35.197Z,44.30
2018-09-09T17:41:13.694Z,44.70
2018-09-09T17:43:46.131Z,45.00
2018-09-09T17:46:17.883Z,45.40
2018-09-09T17:48:49.677Z,45.70
2018-09-09T17:51:21.398Z,46.30
2018-09-09T17:53:53.104Z,47.20
2018-09-09T17:56:24.954Z,48.00
2018-09-09T17:58:56.609Z,49.10
2018-09-09T18:01:28.472Z,49.60
2018-09-09T18:04:00.119Z,50.10
2018-09-09T18:06:31.755Z,50.00
2018-09-09T18:09:03.559Z,50.30
2018-09-09T18:11:35.527Z,50.50
2018-09-09T18:14:07.336Z,50.50
2018-09-09T18:16:38.985Z,50.00
2018-09-09T18:19:10.852Z,50.20
2018-09-09T18:21:42.548Z,50.40
2018-09-09T18:24:14.281Z,50.90
2018-09-09T18:26:46.055Z,51.00
2018-09-09T18:29:19.730Z,51.10
2018-09-09T18:31:51.509Z,52.90
2018-09-09T18:34:23.452Z,53.40
2018-09-09T18:36:55.231Z,54.20
2018-09-09T18:39:26.973Z,54.40
2018-09-09T18:41:58.732Z,54.50
2018-09-09T18:44:30.329Z,54.90
2018-09-09T18:47:02.261Z,55.10
2018-09-09T18:49:34.143Z,55.10
2018-09-09T18:52:05.662Z,54.00
2018-09-09T18:54:37.342Z,54.10
2018-09-09T18:57:09.214Z,53.80
2018-09-09T18:59:43.974Z,53.40
2018-09-09T19:02:15.690Z,53.30
2018-09-09T19:04:47.439Z,53.30
2018-09-09T19:07:19.214Z,54.00
2018-09-09T19:09:50.958Z,54.50
2018-09-09T19:12:22.610Z,55.00
2018-09-09T19:14:54.489Z,55.70
2018-09-09T19:17:26.046Z,54.60
2018-09-09T19:19:57.775Z,54.40
2018-09-09T19:22:29.569Z,54.10
2018-09-09T19:25:01.230Z,54.10
2018-09-09T19:27:32.949Z,54.10
2018-09-09T19:30:04.798Z,54.40
2018-09-09T19:32:36.479Z,54.50
2018-09-09T19:35:08.463Z,55.00
2018-09-09T19:37:40.121Z,54.90
2018-09-09T19:40:11.794Z,55.20
2018-09-09T19:42:43.670Z,55.20
2018-09-09T19:45:15.707Z,55.30
2018-09-09T19:47:47.558Z,55.60
2018-09-09T19:50:19.307Z,56.00
2018-09-09T19:52:51.085Z,56.30
2018-09-09T19:55:22.843Z,56.50
2018-09-09T19:57:54.776Z,57.00
2018-09-09T20:00:26.772Z,57.10
2018-09-09T20:02:58.513Z,57.10
2018-09-09T20:05:30.163Z,57.40
2018-09-09T20:08:02.302Z,57.60
2018-09-09T20:10:34.098Z,57.70
2018-09-09T20:13:05.873Z,57.80
2018-09-09T20:15:37.709Z,58.10
2018-09-09T20:18:09.054Z,58.00
2018-09-09T20:20:40.825Z,58.10
2018-09-09T20:23:12.601Z,57.80
2018-09-09T20:25:44.244Z,57.20
2018-09-09T20:28:16.118Z,57.10
2018-09-09T20:30:47.846Z,56.80
2018-09-09T20:33:19.638Z,56.90
2018-09-09T20:35:51.293Z,56.90
2018-09-09T20:38:23.046Z,57.10
2018-09-09T20:40:54.843Z,57.10
2018-09-09T20:43:26.776Z,57.10
2018-09-09T20:45:58.638Z,57.00
2018-09-09T20:48:30.406Z,56.80
2018-09-09T20:51:02.278Z,57.10
2018-09-09T20:53:34.118Z,57.40
2018-09-09T20:56:05.747Z,57.50
2018-09-09T20:58:37.619Z,57.50
2018-09-09T21:01:09.365Z,57.80
2018-09-09T21:03:41.029Z,58.20
2018-09-09T21:06:12.692Z,58.70
2018-09-09T21:08:44.569Z,58.50
2018-09-09T21:11:16.195Z,58.60
2018-09-09T21:13:47.876Z,58.80
2018-09-09T21:16:19.913Z,58.90
2018-09-09T21:18:51.713Z,59.20
2018-09-09T21:21:23.353Z,59.60
2018-09-09T21:23:55.192Z,60.00
2018-09-09T21:26:27.158Z,60.00
2018-09-09T21:28:58.826Z,60.50
2018-09-09T21:31:30.646Z,61.00
2018-09-09T21:34:02.466Z,61.30
2018-09-09T21:36:34.106Z,61.90
2018-09-09T21:39:07.594Z,61.40
2018-09-09T21:41:39.714Z,62.10
2018-09-09T21:44:11.546Z,62.20
2018-09-09T21:46:43.282Z,62.90
2018-09-09T21:49:15.133Z,61.90
2018-09-09T21:51:47.006Z,61.50
2018-09-09T21:54:18.657Z,61.50
2018-09-09T21:56:50.456Z,61.80
2018-09-09T21:59:22.178Z,62.50
2018-09-09T22:01:58.652Z,63.00
2018-09-09T22:04:30.428Z,63.40
2018-09-09T22:07:02.657Z,63.80
2018-09-09T22:09:34.533Z,64.00
2018-09-09T22:12:06.651Z,64.50
2018-09-09T22:14:38.574Z,64.50
2018-09-09T22:17:11.026Z,64.30
2018-09-09T22:19:42.848Z,63.80
2018-09-09T22:22:14.634Z,63.30
2018-09-09T22:24:46.526Z,64.30
2018-09-09T22:27:18.181Z,64.00
2018-09-09T22:29:49.858Z,64.30
2018-09-09T22:32:21.830Z,64.40
2018-09-09T22:34:53.589Z,64.50
2018-09-09T22:37:25.337Z,64.70
2018-09-09T22:39:57.107Z,65.20
2018-09-09T22:42:28.842Z,64.40
2018-09-09T22:45:00.520Z,64.40
2018-09-09T22:47:32.283Z,64.60
2018-09-09T22:50:04.102Z,64.80
2018-09-09T22:52:35.781Z,65.40
2018-09-09T22:55:07.785Z,65.90
2018-09-09T22:57:39.630Z,66.50
2018-09-09T23:00:11.792Z,66.50
2018-09-09T23:02:43.756Z,66.90
2018-09-09T23:05:15.502Z,67.10
2018-09-09T23:07:47.354Z,67.10
2018-09-09T23:10:19.139Z,67.50
2018-09-09T23:12:50.769Z,66.90
2018-09-09T23:15:26.719Z,66.90
2018-09-09T23:17:58.757Z,67.40
2018-09-09T23:20:30.660Z,68.00
2018-09-09T23:23:02.436Z,67.70
2018-09-09T23:25:34.193Z,67.90
2018-09-09T23:28:06.069Z,68.20
2018-09-09T23:30:37.886Z,69.20
2018-09-09T23:33:09.552Z,70.10
2018-09-09T23:35:41.216Z,69.70
2018-09-09T23:38:12.990Z,69.60
2018-09-09T23:40:44.737Z,69.50
2018-09-09T23:43:16.393Z,69.30
2018-09-09T23:45:48.265Z,69.60
2018-09-09T23:48:19.914Z,69.70
2018-09-09T23:50:51.681Z,69.80
2018-09-09T23:53:23.408Z,68.60
2018-09-09T23:55:55.378Z,69.10
2018-09-09T23:58:27.162Z,68.80
